KBCE

Bryce Canyon Airport

Bryce Canyon, Utah, USA
METAR KBCE 160953Z AUTO 24004KT 10SM CLR M08/M19 A2995 RMK AO2 SLP107 T10781189
Observed Flight Rules
Dec-16 @ 09:53 UTC (57 minutes ago) Visual Flight Rules
Wind Visibility Clouds
240° at 4 knots 10 miles
  • Clear skies
Temperatures Readings
Current -8°C / 18°F
Dewpoint -19°C / -2°F
Humidity 41%
Altimeter 29.95" Hg
Pressure 1010.7 hPa
Elevation 2312
METAR KBCE 160953Z AUTO 24004KT 10SM CLR M08/M19 A2995 RMK AO2 SLP107 T10781189
Observed Flight Rules
Dec-16 @ 09:53 UTC
(57 minutes ago)
VFR
Wind Visibility
240° at 4 knots 10 miles
Clouds
  • Clear skies
Temperature Dewpoint
-8°C / 18°F -19°C / -2°F
Humidity Altimeter Pressure
41% 29.95" Hg 1010.7 hPa